createdAt,value
2019-01-16T00:00:33.658Z,99719.73
2019-01-16T00:03:19.554Z,99717.30
2019-01-16T00:06:02.372Z,99707.89
2019-01-16T00:08:48.060Z,99713.55
2019-01-16T00:11:32.621Z,99712.39
2019-01-16T00:14:08.066Z,99702.42
2019-01-16T00:16:44.637Z,99706.55
2019-01-16T00:19:26.840Z,99697.91
2019-01-16T00:22:16.518Z,99710.80
2019-01-16T00:25:01.723Z,99706.47
2019-01-16T00:27:47.583Z,99700.08
2019-01-16T00:30:39.715Z,99706.74
2019-01-16T00:33:23.424Z,99713.34
2019-01-16T00:36:02.937Z,99713.22
2019-01-16T00:39:08.247Z,99716.92
2019-01-16T00:41:46.760Z,99711.20
2019-01-16T00:44:24.042Z,99714.30
2019-01-16T00:47:09.601Z,99714.97
2019-01-16T00:49:48.073Z,99710.92
2019-01-16T00:52:25.905Z,99727.03
2019-01-16T00:55:11.199Z,99717.24
2019-01-16T00:57:55.674Z,99709.85
2019-01-16T01:00:48.707Z,99719.22
2019-01-16T01:03:32.913Z,99721.11
2019-01-16T01:06:11.308Z,99714.72
2019-01-16T01:08:52.710Z,99715.16
2019-01-16T01:11:39.113Z,99713.36
2019-01-16T01:14:38.492Z,99725.89
2019-01-16T01:17:20.814Z,99731.01
2019-01-16T01:20:10.526Z,99727.17
2019-01-16T01:22:44.823Z,99733.44
2019-01-16T01:25:34.273Z,99729.13
2019-01-16T01:28:10.021Z,99733.38
2019-01-16T01:31:12.401Z,99734.18
2019-01-16T01:33:57.873Z,99738.90
2019-01-16T01:36:44.907Z,99737.34
2019-01-16T01:39:30.673Z,99735.06
2019-01-16T01:42:11.448Z,99748.66
2019-01-16T01:44:56.997Z,99734.59
2019-01-16T01:47:42.136Z,99735.80
2019-01-16T01:50:38.437Z,99736.35
2019-01-16T01:53:24.329Z,99733.39
2019-01-16T01:56:09.818Z,99733.97
2019-01-16T01:58:53.140Z,99735.38
2019-01-16T02:01:38.824Z,99736.21
2019-01-16T02:04:29.116Z,99743.29
2019-01-16T02:07:14.798Z,99741.66
2019-01-16T02:09:57.125Z,99744.90
2019-01-16T02:12:48.831Z,99753.80
2019-01-16T02:15:38.133Z,99745.27
2019-01-16T02:18:24.108Z,99741.30
2019-01-16T02:21:09.988Z,99755.20
2019-01-16T02:24:06.234Z,99731.45
2019-01-16T02:27:02.477Z,99728.89
2019-01-16T02:30:04.519Z,99742.63
2019-01-16T02:32:49.687Z,99742.34
2019-01-16T02:35:31.806Z,99751.48
2019-01-16T02:38:07.376Z,99746.67
2019-01-16T02:41:01.319Z,99738.94
2019-01-16T02:43:37.179Z,99742.42
2019-01-16T02:46:22.142Z,99743.11
2019-01-16T02:49:11.671Z,99746.90
2019-01-16T02:52:02.630Z,99737.33
2019-01-16T02:54:58.549Z,99751.10
2019-01-16T02:57:48.045Z,99743.89
2019-01-16T03:00:33.033Z,99746.06
2019-01-16T03:03:11.125Z,99730.68
2019-01-16T03:05:45.966Z,99743.38
2019-01-16T03:08:41.961Z,99748.95
2019-01-16T03:11:32.061Z,99749.99
2019-01-16T03:14:17.576Z,99741.82
2019-01-16T03:17:10.581Z,99748.31
2019-01-16T03:19:51.277Z,99736.90
2019-01-16T03:22:38.920Z,99751.68
2019-01-16T03:25:20.088Z,99762.33
2019-01-16T03:28:16.398Z,99759.37
2019-01-16T03:31:02.081Z,99755.88
2019-01-16T03:33:37.936Z,99758.44
2019-01-16T03:36:31.095Z,99762.28
2019-01-16T03:39:14.321Z,99766.13
2019-01-16T03:42:07.377Z,99763.64
2019-01-16T03:44:54.382Z,99764.72
2019-01-16T03:47:36.218Z,99763.72
2019-01-16T03:50:21.801Z,99767.63
2019-01-16T03:53:00.020Z,99768.08
2019-01-16T03:55:46.999Z,99767.47
2019-01-16T03:58:32.894Z,99769.84
2019-01-16T04:01:24.309Z,99768.30
2019-01-16T04:04:02.436Z,99771.98
2019-01-16T04:06:48.218Z,99762.41
2019-01-16T04:09:39.113Z,99763.77
2019-01-16T04:12:19.405Z,99766.73
2019-01-16T04:15:02.391Z,99767.34
2019-01-16T04:17:48.025Z,99767.22
2019-01-16T04:20:31.099Z,99756.38
2019-01-16T04:23:08.386Z,99767.34
2019-01-16T04:25:55.196Z,99760.89
2019-01-16T04:28:51.249Z,99757.05
2019-01-16T04:31:44.282Z,99762.83
2019-01-16T04:34:23.438Z,99753.38
2019-01-16T04:37:11.474Z,99760.53
2019-01-16T04:39:57.574Z,99767.27
2019-01-16T04:42:33.334Z,99768.62
2019-01-16T04:45:13.968Z,99773.75
2019-01-16T04:47:48.701Z,99760.34
2019-01-16T04:50:35.013Z,99764.72
2019-01-16T04:53:20.784Z,99768.16
2019-01-16T04:56:10.357Z,99770.64
2019-01-16T04:58:59.671Z,99770.91
2019-01-16T05:01:45.417Z,99769.70
2019-01-16T05:04:32.431Z,99769.98
2019-01-16T05:07:22.656Z,99768.43
2019-01-16T05:10:08.274Z,99773.07
2019-01-16T05:13:13.759Z,99763.55
2019-01-16T05:15:49.472Z,99768.61
2019-01-16T05:18:38.916Z,99766.60
2019-01-16T05:21:22.641Z,99779.09
2019-01-16T05:24:03.291Z,99779.41
2019-01-16T05:26:42.827Z,99777.20
2019-01-16T05:29:29.846Z,99786.48
2019-01-16T05:32:23.312Z,99787.30
2019-01-16T05:35:10.337Z,99784.34
2019-01-16T05:38:05.371Z,99783.06
2019-01-16T05:40:50.889Z,99782.50
2019-01-16T05:43:42.144Z,99779.73
2019-01-16T05:46:19.318Z,99775.77
2019-01-16T05:49:06.334Z,99778.86
2019-01-16T05:52:02.695Z,99772.06
2019-01-16T05:54:47.999Z,99768.21
2019-01-16T05:57:34.680Z,99771.13
2019-01-16T06:00:30.679Z,99776.22
2019-01-16T06:03:16.364Z,99765.45
2019-01-16T06:05:50.295Z,99762.41
2019-01-16T06:08:34.149Z,99766.93
2019-01-16T06:11:21.665Z,99763.09
2019-01-16T06:14:07.530Z,99770.70
2019-01-16T06:16:57.108Z,99773.55
2019-01-16T06:19:42.899Z,99764.49
2019-01-16T06:22:24.587Z,99764.37
2019-01-16T06:25:10.699Z,99762.45
2019-01-16T06:27:56.669Z,99764.77
2019-01-16T06:30:39.083Z,99764.65
2019-01-16T06:33:31.582Z,99762.84
2019-01-16T06:36:14.754Z,99769.33
2019-01-16T06:39:11.325Z,99773.98
2019-01-16T06:41:52.673Z,99775.19
2019-01-16T06:44:38.048Z,99770.38
2019-01-16T06:47:28.656Z,99784.52
2019-01-16T06:50:18.366Z,99787.97
2019-01-16T06:52:55.621Z,99782.91
2019-01-16T06:55:41.408Z,99788.24
2019-01-16T06:58:28.425Z,99786.36
2019-01-16T07:01:09.601Z,99782.88
2019-01-16T07:03:50.881Z,99788.64
2019-01-16T07:06:52.853Z,99785.32
2019-01-16T07:09:43.669Z,99791.85
2019-01-16T07:12:36.848Z,99786.28
2019-01-16T07:15:22.179Z,99790.97
2019-01-16T07:18:20.785Z,99786.36
2019-01-16T07:21:06.389Z,99785.92
2019-01-16T07:23:45.427Z,99788.09
2019-01-16T07:26:41.034Z,99784.00
2019-01-16T07:29:26.602Z,99781.35
2019-01-16T07:32:13.737Z,99786.36
2019-01-16T07:35:06.877Z,99788.92
2019-01-16T07:37:45.314Z,99785.52
2019-01-16T07:40:22.836Z,99782.44
2019-01-16T07:43:17.985Z,99782.44
2019-01-16T07:45:59.291Z,99790.33
2019-01-16T07:48:39.838Z,99789.84
2019-01-16T07:51:32.914Z,99779.75
2019-01-16T07:54:13.865Z,99786.08
2019-01-16T07:57:03.307Z,99786.08
2019-01-16T07:59:55.989Z,99786.44
2019-01-16T08:02:41.399Z,99780.87
2019-01-16T08:05:31.575Z,99784.56
2019-01-16T08:08:12.343Z,99782.68
2019-01-16T08:10:57.878Z,99795.02
2019-01-16T08:13:53.651Z,99791.57
2019-01-16T08:16:43.196Z,99781.15
2019-01-16T08:19:29.298Z,99781.15
2019-01-16T08:22:18.982Z,99793.97
2019-01-16T08:24:55.757Z,99789.69
2019-01-16T08:27:41.445Z,99787.72
2019-01-16T08:30:29.892Z,99796.89
2019-01-16T08:33:16.188Z,99794.84
2019-01-16T08:36:21.177Z,99797.20
2019-01-16T08:39:06.615Z,99794.31
2019-01-16T08:41:56.386Z,99792.67
2019-01-16T08:44:41.726Z,99797.92
2019-01-16T08:47:43.908Z,99792.98
2019-01-16T08:50:22.453Z,99795.67
2019-01-16T08:53:16.640Z,99786.77
2019-01-16T08:56:05.825Z,99790.33
2019-01-16T08:58:51.498Z,99785.02
2019-01-16T09:01:37.381Z,99785.02
2019-01-16T09:04:34.328Z,99782.28
2019-01-16T09:07:24.074Z,99788.29
2019-01-16T09:10:03.237Z,99787.89
2019-01-16T09:12:48.105Z,99787.16
2019-01-16T09:15:41.164Z,99785.81
2019-01-16T09:18:30.951Z,99777.78
2019-01-16T09:21:20.727Z,99788.09
2019-01-16T09:24:03.033Z,99795.05
2019-01-16T09:26:40.867Z,99792.48
2019-01-16T09:29:22.180Z,99787.54
2019-01-16T09:32:08.208Z,99797.80
2019-01-16T09:34:50.008Z,99788.16
2019-01-16T09:37:52.174Z,99785.23
2019-01-16T09:40:43.735Z,99785.19
2019-01-16T09:43:29.385Z,99787.94
2019-01-16T09:46:14.160Z,99782.26
2019-01-16T09:49:01.676Z,99776.03
2019-01-16T09:51:47.360Z,99776.03
2019-01-16T09:54:32.562Z,99775.91
2019-01-16T09:57:18.138Z,99769.97
2019-01-16T10:00:03.757Z,99770.56
2019-01-16T10:02:50.532Z,99777.31
2019-01-16T10:05:36.135Z,99776.39
2019-01-16T10:08:18.708Z,99776.39
2019-01-16T10:11:12.280Z,99772.83
2019-01-16T10:13:50.786Z,99772.83
2019-01-16T10:16:45.590Z,99759.70
2019-01-16T10:19:36.494Z,99759.70
2019-01-16T10:22:23.163Z,99761.67
2019-01-16T10:25:07.866Z,99761.67
2019-01-16T10:27:43.495Z,99763.66
2019-01-16T10:30:42.714Z,99753.05
2019-01-16T10:33:27.408Z,99728.17
2019-01-16T10:36:15.316Z,99728.17
2019-01-16T10:38:54.547Z,99741.03
2019-01-16T10:41:40.762Z,99740.36
2019-01-16T10:44:17.270Z,99740.36
2019-01-16T10:47:13.526Z,99729.92
2019-01-16T10:49:55.608Z,99722.22
2019-01-16T10:52:45.034Z,99719.14
2019-01-16T10:55:35.127Z,99719.14
2019-01-16T10:58:23.166Z,99719.91
2019-01-16T11:00:58.834Z,99710.78
2019-01-16T11:03:45.812Z,99710.78
2019-01-16T11:06:25.967Z,99705.17
2019-01-16T11:09:31.321Z,99700.98
2019-01-16T11:12:18.332Z,99708.79
2019-01-16T11:14:57.465Z,99714.84
2019-01-16T11:17:42.660Z,99707.20
2019-01-16T11:20:22.795Z,99692.67
2019-01-16T11:23:15.958Z,99693.61
2019-01-16T11:25:50.683Z,99690.06
2019-01-16T11:28:33.941Z,99692.56
2019-01-16T11:31:36.285Z,99686.59
2019-01-16T11:34:17.768Z,99686.11
2019-01-16T11:37:03.075Z,99671.53
2019-01-16T11:39:50.066Z,99679.31
2019-01-16T11:42:41.208Z,99657.00
2019-01-16T11:45:31.985Z,99649.62
2019-01-16T11:48:19.533Z,99649.62
2019-01-16T11:51:05.340Z,99655.84
2019-01-16T11:53:45.478Z,99652.69
2019-01-16T11:56:29.460Z,99655.28
2019-01-16T11:59:10.292Z,99641.08
2019-01-16T12:01:46.428Z,99635.04
2019-01-16T12:04:31.788Z,99654.16
2019-01-16T12:07:10.153Z,99643.14
2019-01-16T12:09:47.028Z,99636.98
2019-01-16T12:12:33.695Z,99629.92
2019-01-16T12:15:19.600Z,99631.44
2019-01-16T12:18:18.190Z,99625.45
2019-01-16T12:21:05.207Z,99621.97
2019-01-16T12:23:50.991Z,99615.73
2019-01-16T12:26:31.653Z,99614.88
2019-01-16T12:29:11.426Z,99614.88
2019-01-16T12:31:57.087Z,99614.98
2019-01-16T12:34:46.590Z,99614.98
2019-01-16T12:37:36.552Z,99604.23
2019-01-16T12:40:22.174Z,99595.32
2019-01-16T12:43:02.491Z,99604.37
2019-01-16T12:45:52.195Z,99602.66
2019-01-16T12:48:41.744Z,99597.91
2019-01-16T12:51:22.821Z,99587.32
2019-01-16T12:54:07.608Z,99593.91
2019-01-16T12:56:42.931Z,99587.50
2019-01-16T12:59:31.708Z,99590.64
2019-01-16T13:02:11.869Z,99590.54
2019-01-16T13:05:06.842Z,99592.80
2019-01-16T13:07:59.309Z,99592.48
2019-01-16T13:10:55.248Z,99582.36
2019-01-16T13:13:32.770Z,99575.13
2019-01-16T13:16:19.141Z,99569.89
2019-01-16T13:18:57.919Z,99575.13
2019-01-16T13:21:50.101Z,99572.94
2019-01-16T13:24:35.755Z,99589.25
2019-01-16T13:27:15.325Z,99581.13
2019-01-16T13:30:00.723Z,99567.71
2019-01-16T13:32:53.526Z,99567.71
2019-01-16T13:35:46.193Z,99581.93
2019-01-16T13:38:35.674Z,99575.98
2019-01-16T13:41:13.715Z,99567.00
2019-01-16T13:44:00.773Z,99558.58
2019-01-16T13:46:59.542Z,99553.69
2019-01-16T13:49:41.663Z,99549.94
2019-01-16T13:52:26.967Z,99551.78
2019-01-16T13:55:19.698Z,99542.23
2019-01-16T13:58:05.580Z,99539.16
2019-01-16T14:00:55.568Z,99533.05
2019-01-16T14:03:41.462Z,99533.14
2019-01-16T14:06:31.234Z,99530.48
2019-01-16T14:09:24.310Z,99527.34
2019-01-16T14:12:20.870Z,99523.91
2019-01-16T14:15:13.700Z,99528.70
2019-01-16T14:17:59.197Z,99527.34
2019-01-16T14:20:39.908Z,99521.80
2019-01-16T14:23:33.008Z,99524.40
2019-01-16T14:26:23.084Z,99520.11
2019-01-16T14:29:15.828Z,99516.81
2019-01-16T14:31:55.305Z,99521.70
2019-01-16T14:34:37.813Z,99528.36
2019-01-16T14:37:36.677Z,99528.36
2019-01-16T14:40:13.998Z,99511.61
2019-01-16T14:42:58.656Z,99520.26
2019-01-16T14:45:45.642Z,99516.98
2019-01-16T14:48:33.417Z,99515.98
2019-01-16T14:51:19.222Z,99515.98
2019-01-16T14:54:05.153Z,99512.94
2019-01-16T14:56:51.832Z,99504.02
2019-01-16T14:59:31.529Z,99503.15
2019-01-16T15:02:09.542Z,99503.15
2019-01-16T15:04:51.226Z,99497.01
2019-01-16T15:07:27.395Z,99491.47
2019-01-16T15:10:13.358Z,99500.48
2019-01-16T15:12:52.794Z,99508.66
2019-01-16T15:15:48.723Z,99504.44
2019-01-16T15:18:32.701Z,99483.17
2019-01-16T15:21:17.356Z,99489.78
2019-01-16T15:24:04.022Z,99486.64
2019-01-16T15:26:41.753Z,99486.64
2019-01-16T15:29:28.753Z,99497.13
2019-01-16T15:32:18.630Z,99490.72
2019-01-16T15:35:05.653Z,99482.17
2019-01-16T15:37:43.654Z,99482.80
2019-01-16T15:40:23.911Z,99480.02
2019-01-16T15:43:09.700Z,99479.80
2019-01-16T15:45:58.668Z,99470.69
2019-01-16T15:48:57.556Z,99467.33
2019-01-16T15:51:43.136Z,99465.35
2019-01-16T15:54:28.823Z,99458.30
2019-01-16T15:57:15.839Z,99457.23
2019-01-16T15:59:54.358Z,99452.37
2019-01-16T16:02:36.046Z,99449.73
2019-01-16T16:05:17.121Z,99454.11
2019-01-16T16:07:57.512Z,99454.11
2019-01-16T16:10:50.233Z,99437.67
2019-01-16T16:13:28.789Z,99443.50
2019-01-16T16:16:30.831Z,99443.50
2019-01-16T16:19:15.209Z,99451.80
2019-01-16T16:21:56.694Z,99450.63
2019-01-16T16:24:41.938Z,99437.00
2019-01-16T16:27:27.676Z,99435.83
2019-01-16T16:30:02.788Z,99431.81
2019-01-16T16:32:40.915Z,99431.83
2019-01-16T16:35:26.766Z,99428.77
2019-01-16T16:38:10.808Z,99430.56
2019-01-16T16:40:45.905Z,99437.36
2019-01-16T16:43:31.463Z,99425.84
2019-01-16T16:46:22.046Z,99431.03
2019-01-16T16:49:05.632Z,99432.31
2019-01-16T16:51:51.557Z,99412.63
2019-01-16T16:54:34.808Z,99417.43
2019-01-16T16:57:20.357Z,99414.14
2019-01-16T17:00:17.135Z,99414.38
2019-01-16T17:02:58.697Z,99402.09
2019-01-16T17:05:38.883Z,99411.30
2019-01-16T17:08:24.838Z,99411.30
2019-01-16T17:11:14.549Z,99410.27
2019-01-16T17:14:05.979Z,99410.91
2019-01-16T17:16:45.404Z,99403.31
2019-01-16T17:19:32.091Z,99395.98
2019-01-16T17:22:17.773Z,99395.09
2019-01-16T17:24:55.242Z,99390.06
2019-01-16T17:27:35.523Z,99383.09
2019-01-16T17:30:14.761Z,99378.88
2019-01-16T17:32:59.830Z,99387.70
2019-01-16T17:35:35.086Z,99387.70
2019-01-16T17:38:14.436Z,99383.19
2019-01-16T17:40:54.251Z,99383.30
2019-01-16T17:43:59.360Z,99370.90
2019-01-16T17:46:49.378Z,99370.90
2019-01-16T17:49:36.701Z,99361.10
2019-01-16T17:52:22.593Z,99357.09
2019-01-16T17:55:02.850Z,99348.06
2019-01-16T17:57:51.842Z,99350.47
2019-01-16T18:00:33.705Z,99343.25
2019-01-16T18:03:23.898Z,99328.87
2019-01-16T18:06:22.996Z,99325.36
2019-01-16T18:09:07.658Z,99314.63
2019-01-16T18:11:53.963Z,99317.03
2019-01-16T18:14:46.719Z,99314.26
2019-01-16T18:17:43.045Z,99311.86
2019-01-16T18:20:36.513Z,99303.84
2019-01-16T18:23:22.030Z,99300.94
2019-01-16T18:26:09.006Z,99307.86
2019-01-16T18:28:47.529Z,99308.96
2019-01-16T18:31:33.432Z,99307.08
2019-01-16T18:34:17.565Z,99301.33
2019-01-16T18:37:07.348Z,99294.98
2019-01-16T18:39:50.705Z,99281.03
2019-01-16T18:42:41.684Z,99270.61
2019-01-16T18:45:40.783Z,99272.67
2019-01-16T18:48:21.048Z,99272.16
2019-01-16T18:51:26.395Z,99270.69
2019-01-16T18:54:12.082Z,99260.80
2019-01-16T18:56:54.074Z,99246.23
2019-01-16T18:59:39.655Z,99238.89
2019-01-16T19:02:22.272Z,99224.66
2019-01-16T19:05:12.698Z,99227.65
2019-01-16T19:07:58.766Z,99230.30
2019-01-16T19:10:49.976Z,99225.63
2019-01-16T19:13:33.606Z,99229.25
2019-01-16T19:16:35.376Z,99232.77
2019-01-16T19:19:20.960Z,99231.80
2019-01-16T19:21:59.676Z,99229.00
2019-01-16T19:25:01.453Z,99235.62
2019-01-16T19:27:45.516Z,99217.52
2019-01-16T19:30:31.274Z,99216.69
2019-01-16T19:33:13.481Z,99212.39
2019-01-16T19:36:06.443Z,99210.56
2019-01-16T19:39:08.500Z,99201.23
2019-01-16T19:41:53.880Z,99194.53
2019-01-16T19:44:38.350Z,99195.55
2019-01-16T19:47:31.495Z,99195.52
2019-01-16T19:50:15.949Z,99205.13
2019-01-16T19:53:04.642Z,99202.91
2019-01-16T19:55:50.553Z,99204.05
2019-01-16T19:58:32.503Z,99201.77
2019-01-16T20:01:18.176Z,99190.06
2019-01-16T20:04:07.959Z,99173.55
2019-01-16T20:07:00.815Z,99184.85
2019-01-16T20:09:46.706Z,99195.59
2019-01-16T20:12:33.732Z,99186.80
2019-01-16T20:15:26.980Z,99182.29
2019-01-16T20:18:13.414Z,99180.65
2019-01-16T20:21:15.172Z,99186.14
2019-01-16T20:24:00.271Z,99188.73
2019-01-16T20:26:46.962Z,99183.31
2019-01-16T20:29:37.214Z,99185.30
2019-01-16T20:32:22.921Z,99171.14
2019-01-16T20:35:02.040Z,99173.98
2019-01-16T20:37:47.925Z,99171.12
2019-01-16T20:40:22.670Z,99173.55
2019-01-16T20:43:03.439Z,99162.98
2019-01-16T20:45:42.348Z,99154.77
2019-01-16T20:48:21.993Z,99144.94
2019-01-16T20:51:07.899Z,99128.30
2019-01-16T20:53:51.348Z,99138.13
2019-01-16T20:56:29.087Z,99140.97
2019-01-16T20:59:18.280Z,99140.69
2019-01-16T21:02:13.836Z,99123.53
2019-01-16T21:05:00.814Z,99118.89
2019-01-16T21:07:35.401Z,99113.36
2019-01-16T21:10:10.268Z,99119.56
2019-01-16T21:12:55.963Z,99118.47
2019-01-16T21:15:32.874Z,99121.58
2019-01-16T21:18:21.586Z,99112.91
2019-01-16T21:21:07.279Z,99103.08
2019-01-16T21:24:09.121Z,99109.48
2019-01-16T21:26:54.539Z,99108.22
2019-01-16T21:29:31.330Z,99098.37
2019-01-16T21:32:12.471Z,99093.62
2019-01-16T21:34:55.702Z,99090.30
2019-01-16T21:37:32.060Z,99082.44
2019-01-16T21:40:11.606Z,99084.63
2019-01-16T21:42:57.187Z,99074.92
2019-01-16T21:45:36.557Z,99073.61
2019-01-16T21:48:30.902Z,99074.12
2019-01-16T21:51:16.542Z,99069.01
2019-01-16T21:53:55.935Z,99062.14
2019-01-16T21:56:37.736Z,99054.17
2019-01-16T21:59:39.842Z,99048.78
2019-01-16T22:02:38.472Z,99042.66
2019-01-16T22:05:27.975Z,99032.28
2019-01-16T22:08:21.050Z,99043.75
2019-01-16T22:11:01.586Z,99025.58
2019-01-16T22:13:46.128Z,99027.55
2019-01-16T22:16:35.140Z,99015.98
2019-01-16T22:19:18.259Z,99020.30
2019-01-16T22:22:01.254Z,99023.41
2019-01-16T22:24:54.015Z,99016.05
2019-01-16T22:27:35.997Z,99013.55
2019-01-16T22:30:29.205Z,99002.53
2019-01-16T22:33:14.549Z,99005.34
2019-01-16T22:36:04.634Z,98997.01
2019-01-16T22:39:01.372Z,99002.21
2019-01-16T22:41:42.387Z,98998.58
2019-01-16T22:44:25.883Z,99002.44
2019-01-16T22:47:07.898Z,98996.51
2019-01-16T22:49:45.475Z,98996.63
2019-01-16T22:52:27.703Z,98986.91
2019-01-16T22:55:08.972Z,98991.52
2019-01-16T22:57:45.123Z,98989.66
2019-01-16T23:00:30.815Z,98987.00
2019-01-16T23:03:13.130Z,98984.44
2019-01-16T23:06:03.203Z,98980.18
2019-01-16T23:08:43.150Z,98977.72
2019-01-16T23:11:26.010Z,98982.34
2019-01-16T23:14:01.077Z,98966.64
2019-01-16T23:16:50.515Z,98968.20
2019-01-16T23:19:31.557Z,98964.80
2019-01-16T23:22:18.571Z,98951.83
2019-01-16T23:25:03.847Z,98950.63
2019-01-16T23:28:02.534Z,98943.25
2019-01-16T23:30:55.155Z,98929.66
2019-01-16T23:33:32.911Z,98929.92
2019-01-16T23:36:31.984Z,98928.79
2019-01-16T23:39:17.673Z,98921.08
2019-01-16T23:41:56.020Z,98917.91
2019-01-16T23:44:39.738Z,98921.03
2019-01-16T23:47:29.453Z,98917.73
2019-01-16T23:50:25.241Z,98909.30
2019-01-16T23:53:02.850Z,98897.55
2019-01-16T23:55:45.117Z,98894.80
2019-01-16T23:58:30.558Z,98901.87
